createdAt,value
2023-04-15T00:01:10.842Z,3.92
2023-04-15T00:03:37.982Z,4.05
2023-04-15T00:06:05.050Z,3.28
2023-04-15T00:08:32.083Z,3.55
2023-04-15T00:11:02.875Z,3.63
2023-04-15T00:13:29.960Z,4.60
2023-04-15T00:15:57.501Z,3.95
2023-04-15T00:18:24.954Z,4.72
2023-04-15T00:20:52.685Z,4.50
2023-04-15T00:23:19.118Z,4.50
2023-04-15T00:25:46.323Z,4.15
2023-04-15T00:28:12.941Z,4.45
2023-04-15T00:30:39.755Z,4.45
2023-04-15T00:33:06.724Z,3.58
2023-04-15T00:35:33.520Z,4.00
2023-04-15T00:38:00.616Z,3.33
2023-04-15T00:40:27.785Z,3.72
2023-04-15T00:42:54.612Z,3.65
2023-04-15T00:45:21.038Z,4.00
2023-04-15T00:47:48.731Z,4.03
2023-04-15T00:50:15.765Z,4.28
2023-04-15T00:52:47.130Z,3.92
2023-04-15T00:55:15.228Z,4.10
2023-04-15T00:57:42.228Z,3.88
2023-04-15T01:00:09.431Z,4.90
2023-04-15T01:02:37.125Z,4.32
2023-04-15T01:05:07.700Z,4.78
2023-04-15T01:07:34.368Z,5.63
2023-04-15T01:10:03.342Z,5.18
2023-04-15T01:12:32.119Z,5.13
2023-04-15T01:14:59.570Z,4.90
2023-04-15T01:17:26.526Z,5.47
2023-04-15T01:19:53.023Z,4.50
2023-04-15T01:22:19.745Z,5.07
2023-04-15T01:25:06.352Z,4.22
2023-04-15T01:27:33.326Z,4.47
2023-04-15T01:29:59.720Z,4.45
2023-04-15T01:32:26.275Z,4.90
2023-04-15T01:34:53.034Z,4.53
2023-04-15T01:37:25.518Z,4.25
2023-04-15T01:39:52.407Z,4.72
2023-04-15T01:42:19.134Z,4.47
2023-04-15T01:44:46.645Z,4.70
2023-04-15T01:47:13.302Z,4.78
2023-04-15T01:49:41.790Z,4.90
2023-04-15T01:52:08.497Z,5.30
2023-04-15T01:54:35.346Z,4.82
2023-04-15T01:57:02.838Z,5.60
2023-04-15T01:59:31.337Z,5.20
2023-04-15T02:01:58.747Z,5.05
2023-04-15T02:04:28.091Z,6.18
2023-04-15T02:06:54.762Z,6.20
2023-04-15T02:09:22.137Z,5.78
2023-04-15T02:11:48.766Z,6.07
2023-04-15T02:14:15.547Z,6.38
2023-04-15T02:16:42.092Z,6.07
2023-04-15T02:19:09.176Z,6.20
2023-04-15T02:21:37.642Z,5.28
2023-04-15T02:24:06.599Z,6.03
2023-04-15T02:26:33.499Z,5.90
2023-04-15T02:29:00.168Z,5.30
2023-04-15T02:31:27.092Z,5.53
2023-04-15T02:33:54.847Z,5.28
2023-04-15T02:36:21.784Z,5.35
2023-04-15T02:38:48.544Z,5.20
2023-04-15T02:41:16.122Z,4.90
2023-04-15T02:43:44.651Z,4.60
2023-04-15T02:46:15.325Z,5.15
2023-04-15T02:48:41.961Z,5.22
2023-04-15T02:51:12.949Z,5.20
2023-04-15T02:53:39.393Z,5.03
2023-04-15T02:56:06.571Z,4.28
2023-04-15T02:58:34.789Z,4.68
2023-04-15T03:01:01.367Z,4.40
2023-04-15T03:03:29.226Z,4.53
2023-04-15T03:05:55.822Z,4.35
2023-04-15T03:08:22.568Z,4.07
2023-04-15T03:10:49.260Z,4.18
2023-04-15T03:13:16.594Z,4.40
2023-04-15T03:15:43.967Z,4.05
2023-04-15T03:18:10.822Z,4.93
2023-04-15T03:20:37.428Z,4.95
2023-04-15T03:23:03.876Z,4.30
2023-04-15T03:25:30.776Z,4.50
2023-04-15T03:27:57.138Z,4.90
2023-04-15T03:30:23.713Z,5.00
2023-04-15T03:32:50.705Z,4.22
2023-04-15T03:35:17.258Z,4.53
2023-04-15T03:37:43.763Z,4.55
2023-04-15T03:40:10.646Z,3.83
2023-04-15T03:42:37.281Z,4.22
2023-04-15T03:45:04.533Z,4.15
2023-04-15T03:47:32.107Z,4.28
2023-04-15T03:49:58.542Z,4.05
2023-04-15T03:52:24.912Z,4.18
2023-04-15T03:54:51.723Z,4.20
2023-04-15T03:57:18.119Z,4.20
2023-04-15T03:59:44.465Z,3.70
2023-04-15T04:02:11.244Z,4.10
2023-04-15T04:04:37.731Z,4.05
2023-04-15T04:07:04.251Z,4.13
2023-04-15T04:09:30.899Z,3.83
2023-04-15T04:11:58.002Z,3.45
2023-04-15T04:14:29.407Z,4.55
2023-04-15T04:16:57.094Z,4.18
2023-04-15T04:19:23.756Z,4.05
2023-04-15T04:21:50.393Z,3.85
2023-04-15T04:24:16.901Z,4.07
2023-04-15T04:26:43.274Z,4.30
2023-04-15T04:29:09.951Z,3.80
2023-04-15T04:31:36.743Z,3.85
2023-04-15T04:34:03.289Z,3.80
2023-04-15T04:36:29.802Z,3.78
2023-04-15T04:38:57.493Z,4.13
2023-04-15T04:41:24.196Z,3.90
2023-04-15T04:43:51.164Z,4.28
2023-04-15T04:46:17.599Z,3.70
2023-04-15T04:48:47.083Z,3.97
2023-04-15T04:51:14.949Z,3.95
2023-04-15T04:53:41.766Z,3.60
2023-04-15T04:56:08.114Z,4.20
2023-04-15T04:58:34.640Z,3.65
2023-04-15T05:01:01.508Z,3.80
2023-04-15T05:03:28.564Z,3.55
2023-04-15T05:05:55.319Z,3.78
2023-04-15T05:08:21.844Z,3.40
2023-04-15T05:10:48.495Z,3.63
2023-04-15T05:13:15.275Z,3.30
2023-04-15T05:15:43.482Z,3.55
2023-04-15T05:18:10.050Z,3.60
2023-04-15T05:20:36.420Z,3.70
2023-04-15T05:23:03.119Z,3.80
2023-04-15T05:25:29.690Z,3.28
2023-04-15T05:27:56.419Z,3.38
2023-04-15T05:30:22.801Z,3.50
2023-04-15T05:32:50.191Z,3.67
2023-04-15T05:35:17.683Z,3.30
2023-04-15T05:37:44.444Z,3.33
2023-04-15T05:40:11.325Z,3.15
2023-04-15T05:42:37.737Z,3.60
2023-04-15T05:45:05.788Z,3.85
2023-04-15T05:47:32.555Z,3.38
2023-04-15T05:50:00.566Z,3.67
2023-04-15T05:52:27.386Z,3.40
2023-04-15T05:54:53.726Z,3.50
2023-04-15T05:57:20.254Z,3.38
2023-04-15T05:59:46.938Z,3.10
2023-04-15T06:02:13.726Z,3.40
2023-04-15T06:04:40.730Z,3.50
2023-04-15T06:07:08.928Z,3.20
2023-04-15T06:09:36.717Z,3.70
2023-04-15T06:12:03.465Z,3.20
2023-04-15T06:14:29.813Z,3.08
2023-04-15T06:16:56.609Z,3.60
2023-04-15T06:19:23.266Z,3.22
2023-04-15T06:21:49.955Z,3.35
2023-04-15T06:24:16.722Z,3.28
2023-04-15T06:26:43.249Z,3.22
2023-04-15T06:29:12.059Z,3.30
2023-04-15T06:31:40.234Z,3.67
2023-04-15T06:34:06.795Z,4.78
2023-04-15T06:36:33.237Z,4.15
2023-04-15T06:39:00.505Z,3.58
2023-04-15T06:41:26.997Z,3.47
2023-04-15T06:43:54.012Z,3.40
2023-04-15T06:46:20.741Z,3.47
2023-04-15T06:48:47.560Z,3.55
2023-04-15T06:51:14.681Z,3.60
2023-04-15T06:53:42.519Z,3.17
2023-04-15T06:56:09.765Z,3.17
2023-04-15T06:58:38.151Z,3.38
2023-04-15T07:01:04.919Z,3.75
2023-04-15T07:03:32.861Z,4.20
2023-04-15T07:05:59.872Z,3.90
2023-04-15T07:08:27.007Z,4.05
2023-04-15T07:10:54.552Z,4.40
2023-04-15T07:13:21.765Z,4.05
2023-04-15T07:15:48.797Z,3.88
2023-04-15T07:18:17.501Z,3.35
2023-04-15T07:20:44.841Z,3.10
2023-04-15T07:23:11.339Z,3.38
2023-04-15T07:25:38.082Z,2.72
2023-04-15T07:28:05.236Z,3.53
2023-04-15T07:30:31.812Z,3.78
2023-04-15T07:32:58.880Z,3.20
2023-04-15T07:35:28.664Z,2.30
2023-04-15T07:37:55.269Z,2.33
2023-04-15T07:40:22.620Z,2.67
2023-04-15T07:42:49.460Z,2.80
2023-04-15T07:45:16.330Z,3.85
2023-04-15T07:47:43.020Z,2.90
2023-04-15T07:50:11.094Z,2.38
2023-04-15T07:52:39.423Z,6.10
2023-04-15T07:55:12.906Z,3.65
2023-04-15T07:57:39.565Z,1.90
2023-04-15T08:00:07.589Z,2.10
2023-04-15T08:02:41.660Z,2.30
2023-04-15T08:05:09.130Z,2.10
2023-04-15T08:07:38.185Z,2.78
2023-04-15T08:10:04.969Z,2.67
2023-04-15T08:12:32.714Z,2.58
2023-04-15T08:14:59.206Z,3.70
2023-04-15T08:17:25.741Z,2.75
2023-04-15T08:19:52.210Z,2.88
2023-04-15T08:22:19.667Z,5.10
2023-04-15T08:24:47.580Z,2.58
2023-04-15T08:27:14.220Z,2.40
2023-04-15T08:29:40.721Z,2.22
2023-04-15T08:32:07.888Z,2.22
2023-04-15T08:34:35.025Z,2.03
2023-04-15T08:37:01.643Z,2.10
2023-04-15T08:39:28.521Z,2.58
2023-04-15T08:42:01.709Z,2.20
2023-04-15T08:44:33.554Z,1.60
2023-04-15T08:47:03.536Z,2.15
2023-04-15T08:49:30.637Z,1.55
2023-04-15T08:51:59.126Z,1.58
2023-04-15T08:54:26.225Z,1.67
2023-04-15T08:56:53.115Z,1.60
2023-04-15T08:59:22.096Z,1.50
2023-04-15T09:01:50.946Z,1.20
2023-04-15T09:04:17.831Z,1.75
2023-04-15T09:06:44.468Z,1.30
2023-04-15T09:09:12.339Z,1.20
2023-04-15T09:11:39.054Z,1.50
2023-04-15T09:14:05.613Z,1.50
2023-04-15T09:16:32.543Z,1.40
2023-04-15T09:18:59.003Z,2.55
2023-04-15T09:21:25.563Z,1.30
2023-04-15T09:23:59.141Z,1.50
2023-04-15T09:26:36.233Z,1.30
2023-04-15T09:29:08.073Z,2.17
2023-04-15T09:31:34.588Z,1.45
2023-04-15T09:34:01.664Z,1.98
2023-04-15T09:36:30.679Z,1.70
2023-04-15T09:38:57.699Z,1.55
2023-04-15T09:41:25.101Z,1.70
2023-04-15T09:43:52.719Z,1.60
2023-04-15T09:46:19.255Z,1.55
2023-04-15T09:48:46.334Z,1.30
2023-04-15T09:51:13.277Z,1.92
2023-04-15T09:53:39.791Z,1.80
2023-04-15T09:56:08.171Z,1.33
2023-04-15T09:58:35.338Z,1.42
2023-04-15T10:01:04.031Z,1.90
2023-04-15T10:03:34.824Z,1.20
2023-04-15T10:06:08.440Z,1.58
2023-04-15T10:08:35.222Z,1.20
2023-04-15T10:11:02.078Z,1.40
2023-04-15T10:13:32.805Z,1.70
2023-04-15T10:16:00.744Z,2.13
2023-04-15T10:18:28.583Z,1.75
2023-04-15T10:20:55.302Z,1.33
2023-04-15T10:23:25.970Z,1.20
2023-04-15T10:25:54.702Z,1.10
2023-04-15T10:28:22.874Z,1.50
2023-04-15T10:30:50.611Z,1.20
2023-04-15T10:33:17.939Z,4.93
2023-04-15T10:35:44.941Z,1.25
2023-04-15T10:38:30.803Z,1.08
2023-04-15T10:41:12.295Z,1.63
2023-04-15T10:43:39.025Z,1.58
2023-04-15T10:46:06.540Z,1.30
2023-04-15T10:48:33.320Z,1.42
2023-04-15T10:51:03.933Z,1.67
2023-04-15T10:53:31.624Z,1.60
2023-04-15T10:55:58.623Z,1.40
2023-04-15T10:58:25.965Z,1.60
2023-04-15T11:00:53.531Z,1.60
2023-04-15T11:03:39.665Z,1.65
2023-04-15T11:06:07.433Z,2.10
2023-04-15T11:08:52.509Z,1.80
2023-04-15T11:11:19.212Z,1.60
2023-04-15T11:13:50.452Z,1.63
2023-04-15T11:16:17.281Z,2.05
2023-04-15T11:18:53.216Z,2.00
2023-04-15T11:21:20.147Z,1.90
2023-04-15T11:23:49.743Z,2.15
2023-04-15T11:26:16.237Z,1.90
2023-04-15T11:28:43.992Z,1.90
2023-04-15T11:31:12.444Z,2.25
2023-04-15T11:33:44.546Z,2.13
2023-04-15T11:36:11.040Z,2.00
2023-04-15T11:38:38.642Z,2.28
2023-04-15T11:41:05.310Z,2.00
2023-04-15T11:43:32.202Z,2.05
2023-04-15T11:45:59.957Z,2.28
2023-04-15T11:48:31.134Z,2.47
2023-04-15T11:50:59.160Z,1.80
2023-04-15T11:53:38.556Z,2.00
2023-04-15T11:56:05.512Z,1.58
2023-04-15T11:58:34.044Z,1.63
2023-04-15T12:01:01.024Z,1.63
2023-04-15T12:03:32.145Z,1.25
2023-04-15T12:06:09.544Z,1.30
2023-04-15T12:08:54.766Z,1.10
2023-04-15T12:11:27.441Z,1.10
2023-04-15T12:14:04.344Z,1.10
2023-04-15T12:16:31.250Z,1.13
2023-04-15T12:19:03.704Z,1.20
2023-04-15T12:21:35.308Z,1.00
2023-04-15T12:24:04.681Z,1.40
2023-04-15T12:26:34.551Z,1.30
2023-04-15T12:29:05.599Z,1.33
2023-04-15T12:31:32.082Z,1.10
2023-04-15T12:33:59.343Z,1.60
2023-04-15T12:36:25.675Z,1.50
2023-04-15T12:38:52.127Z,1.35
2023-04-15T12:41:27.688Z,1.60
2023-04-15T12:43:54.564Z,1.75
2023-04-15T12:46:22.086Z,1.50
2023-04-15T12:48:48.679Z,1.60
2023-04-15T12:51:15.625Z,1.30
2023-04-15T12:53:42.389Z,1.30
2023-04-15T12:56:09.043Z,1.40
2023-04-15T12:58:36.133Z,1.42
2023-04-15T13:01:08.116Z,1.30
2023-04-15T13:03:34.763Z,1.20
2023-04-15T13:06:02.265Z,1.30
2023-04-15T13:08:28.926Z,1.30
2023-04-15T13:10:55.466Z,1.40
2023-04-15T13:13:22.539Z,1.33
2023-04-15T13:15:49.340Z,1.40
2023-04-15T13:18:16.786Z,1.40
2023-04-15T13:20:43.354Z,1.30
2023-04-15T13:23:09.873Z,1.30
2023-04-15T13:25:36.782Z,1.63
2023-04-15T13:28:03.500Z,1.60
2023-04-15T13:30:30.250Z,1.55
2023-04-15T13:32:57.044Z,1.60
2023-04-15T13:35:24.056Z,1.40
2023-04-15T13:37:51.729Z,1.40
2023-04-15T13:40:19.658Z,1.60
2023-04-15T13:42:47.025Z,1.33
2023-04-15T13:45:16.093Z,1.50
2023-04-15T13:47:42.570Z,1.50
2023-04-15T13:50:09.172Z,1.77
2023-04-15T13:52:35.708Z,2.00
2023-04-15T13:55:07.083Z,1.60
2023-04-15T13:57:47.256Z,1.70
2023-04-15T14:00:14.893Z,1.58
2023-04-15T14:02:42.276Z,1.60
2023-04-15T14:05:09.102Z,1.42
2023-04-15T14:07:35.441Z,1.80
2023-04-15T14:10:02.246Z,1.38
2023-04-15T14:12:29.640Z,1.60
2023-04-15T14:14:56.422Z,1.58
2023-04-15T14:17:23.008Z,1.70
2023-04-15T14:19:49.747Z,1.80
2023-04-15T14:22:17.077Z,2.10
2023-04-15T14:24:43.798Z,2.10
2023-04-15T14:27:12.538Z,2.33
2023-04-15T14:29:38.949Z,2.40
2023-04-15T14:32:12.090Z,2.03
2023-04-15T14:34:41.595Z,2.40
2023-04-15T14:37:08.297Z,2.42
2023-04-15T14:39:35.354Z,2.50
2023-04-15T14:42:02.060Z,2.30
2023-04-15T14:44:28.745Z,2.05
2023-04-15T14:46:55.756Z,2.10
2023-04-15T14:49:24.491Z,1.90
2023-04-15T14:51:51.048Z,1.60
2023-04-15T14:54:17.701Z,1.80
2023-04-15T14:56:44.260Z,1.80
2023-04-15T14:59:10.785Z,1.80
2023-04-15T15:01:37.406Z,1.90
2023-04-15T15:04:04.377Z,1.70
2023-04-15T15:06:31.536Z,1.60
2023-04-15T15:08:58.044Z,1.80
2023-04-15T15:11:26.124Z,2.08
2023-04-15T15:13:53.378Z,2.33
2023-04-15T15:16:20.099Z,2.03
2023-04-15T15:18:49.977Z,2.22
2023-04-15T15:21:17.035Z,1.80
2023-04-15T15:23:43.499Z,2.70
2023-04-15T15:26:10.356Z,2.47
2023-04-15T15:28:37.218Z,2.70
2023-04-15T15:31:04.734Z,3.03
2023-04-15T15:33:31.888Z,3.35
2023-04-15T15:36:00.175Z,3.75
2023-04-15T15:38:26.791Z,3.60
2023-04-15T15:40:54.057Z,3.88
2023-04-15T15:43:20.498Z,3.65
2023-04-15T15:45:47.044Z,4.28
2023-04-15T15:48:14.145Z,4.32
2023-04-15T15:50:40.896Z,5.03
2023-04-15T15:53:10.235Z,4.93
2023-04-15T15:55:37.239Z,4.72
2023-04-15T15:58:03.842Z,4.40
2023-04-15T16:00:30.284Z,4.63
2023-04-15T16:05:27.237Z,4.60
2023-04-15T16:07:53.895Z,4.70
2023-04-15T16:10:20.684Z,4.80
2023-04-15T16:12:47.285Z,4.70
2023-04-15T16:15:14.361Z,4.60
2023-04-15T16:17:41.570Z,4.82
2023-04-15T16:20:08.525Z,5.03
2023-04-15T16:22:35.605Z,4.70
2023-04-15T16:25:02.309Z,4.82
2023-04-15T16:27:29.424Z,5.40
2023-04-15T16:29:55.846Z,5.07
2023-04-15T16:32:22.365Z,4.75
2023-04-15T16:34:48.923Z,5.20
2023-04-15T16:37:15.715Z,5.57
2023-04-15T16:39:42.375Z,5.72
2023-04-15T16:42:10.672Z,6.07
2023-04-15T16:44:37.305Z,5.65
2023-04-15T16:47:04.018Z,5.68
2023-04-15T16:49:30.385Z,5.43
2023-04-15T16:51:59.665Z,5.38
2023-04-15T16:54:26.023Z,5.38
2023-04-15T16:56:52.366Z,4.88
2023-04-15T16:59:19.154Z,5.30
2023-04-15T17:01:45.789Z,5.25
2023-04-15T17:04:12.445Z,5.40
2023-04-15T17:06:39.073Z,5.53
2023-04-15T17:09:05.731Z,5.68
2023-04-15T17:11:32.408Z,5.60
2023-04-15T17:13:58.838Z,5.32
2023-04-15T17:16:25.499Z,5.80
2023-04-15T17:18:52.082Z,5.95
2023-04-15T17:21:18.547Z,5.78
2023-04-15T17:23:45.124Z,5.82
2023-04-15T17:26:11.594Z,6.00
2023-04-15T17:28:38.013Z,5.82
2023-04-15T17:31:04.755Z,6.13
2023-04-15T17:33:57.987Z,6.25
2023-04-15T17:36:18.077Z,6.47
2023-04-15T17:38:45.551Z,6.40
2023-04-15T17:41:12.375Z,7.78
2023-04-15T17:43:38.826Z,6.80
2023-04-15T17:46:06.692Z,6.75
2023-04-15T17:48:33.471Z,6.60
2023-04-15T17:51:00.231Z,6.93
2023-04-15T17:53:26.653Z,6.90
2023-04-15T17:55:54.511Z,6.93
2023-04-15T17:58:21.000Z,6.95
2023-04-15T18:00:47.788Z,6.70
2023-04-15T18:03:14.724Z,6.55
2023-04-15T18:05:42.669Z,6.55
2023-04-15T18:08:09.742Z,7.00
2023-04-15T18:10:36.764Z,7.13
2023-04-15T18:13:03.421Z,6.50
2023-04-15T18:15:33.361Z,6.45
2023-04-15T18:18:00.290Z,6.20
2023-04-15T18:20:26.841Z,8.18
2023-04-15T18:22:53.612Z,7.68
2023-04-15T18:25:20.395Z,7.15
2023-04-15T18:27:47.058Z,7.03
2023-04-15T18:30:13.479Z,6.78
2023-04-15T18:32:41.110Z,7.25
2023-04-15T18:35:07.928Z,7.63
2023-04-15T18:37:34.468Z,7.28
2023-04-15T18:40:00.960Z,8.25
2023-04-15T18:42:27.667Z,6.88
2023-04-15T18:44:54.539Z,6.97
2023-04-15T18:47:21.134Z,7.20
2023-04-15T18:49:47.719Z,7.53
2023-04-15T18:52:14.113Z,7.97
2023-04-15T18:54:40.593Z,8.23
2023-04-15T18:57:07.081Z,8.13
2023-04-15T18:59:33.937Z,8.25
2023-04-15T19:02:01.137Z,8.52
2023-04-15T19:04:30.672Z,8.10
2023-04-15T19:06:57.546Z,7.53
2023-04-15T19:09:24.040Z,7.90
2023-04-15T19:11:51.063Z,7.80
2023-04-15T19:14:17.927Z,7.88
2023-04-15T19:16:44.394Z,7.70
2023-04-15T19:19:14.533Z,8.15
2023-04-15T19:21:41.407Z,7.80
2023-04-15T19:24:07.850Z,7.40
2023-04-15T19:26:34.306Z,7.47
2023-04-15T19:29:00.773Z,7.03
2023-04-15T19:31:27.218Z,7.22
2023-04-15T19:33:53.652Z,7.00
2023-04-15T19:36:20.066Z,6.93
2023-04-15T19:38:46.538Z,6.40
2023-04-15T19:41:13.046Z,6.07
2023-04-15T19:43:39.466Z,5.85
2023-04-15T19:46:06.358Z,5.68
2023-04-15T19:48:32.791Z,6.05
2023-04-15T19:51:00.736Z,6.10
2023-04-15T19:53:27.302Z,5.90
2023-04-15T19:55:53.715Z,5.40
2023-04-15T19:58:20.177Z,6.18
2023-04-15T20:00:46.593Z,5.93
2023-04-15T20:03:13.368Z,6.03
2023-04-15T20:05:40.487Z,6.32
2023-04-15T20:08:06.912Z,5.80
2023-04-15T20:10:33.435Z,6.13
2023-04-15T20:12:59.936Z,6.75
2023-04-15T20:15:26.528Z,6.18
2023-04-15T20:17:53.429Z,6.63
2023-04-15T20:20:20.274Z,6.57
2023-04-15T20:22:47.016Z,6.53
2023-04-15T20:25:13.924Z,5.35
2023-04-15T20:27:43.622Z,5.68
2023-04-15T20:30:10.549Z,5.38
2023-04-15T20:32:37.216Z,5.82
2023-04-15T20:35:04.365Z,5.43
2023-04-15T20:37:33.116Z,5.00
2023-04-15T20:40:00.457Z,4.90
2023-04-15T20:42:26.922Z,4.80
2023-04-15T20:44:53.350Z,4.60
2023-04-15T20:47:20.306Z,4.68
2023-04-15T20:49:47.392Z,4.88
2023-04-15T20:52:13.872Z,4.97
2023-04-15T20:54:40.429Z,4.85
2023-04-15T20:57:06.843Z,4.95
2023-04-15T20:59:34.843Z,5.20
2023-04-15T21:02:01.551Z,5.20
2023-04-15T21:04:28.244Z,5.25
2023-04-15T21:06:54.579Z,5.55
2023-04-15T21:09:20.990Z,5.22
2023-04-15T21:12:00.481Z,5.75
2023-04-15T21:14:28.461Z,6.03
2023-04-15T21:16:54.927Z,5.95
2023-04-15T21:19:21.379Z,6.57
2023-04-15T21:21:47.806Z,6.30
2023-04-15T21:24:14.175Z,6.00
2023-04-15T21:26:40.663Z,6.63
2023-04-15T21:29:09.460Z,5.75
2023-04-15T21:31:37.724Z,6.30
2023-04-15T21:34:04.247Z,6.15
2023-04-15T21:36:31.622Z,6.70
2023-04-15T21:38:58.076Z,6.68
2023-04-15T21:41:24.735Z,6.95
2023-04-15T21:43:51.434Z,6.68
2023-04-15T21:46:24.193Z,7.10
2023-04-15T21:48:55.153Z,7.05
2023-04-15T21:51:21.839Z,6.82
2023-04-15T21:53:50.617Z,6.72
2023-04-15T21:56:18.362Z,7.25
2023-04-15T21:58:44.906Z,6.85
2023-04-15T22:01:11.473Z,6.25
2023-04-15T22:03:38.331Z,7.22
2023-04-15T22:06:05.301Z,7.53
2023-04-15T22:08:41.287Z,6.50
2023-04-15T22:11:26.872Z,7.35
2023-04-15T22:13:53.975Z,6.63
2023-04-15T22:16:20.625Z,7.95
2023-04-15T22:18:48.012Z,7.10
2023-04-15T22:21:14.805Z,6.70
2023-04-15T22:23:45.894Z,7.10
2023-04-15T22:26:14.760Z,7.20
2023-04-15T22:28:41.906Z,7.20
2023-04-15T22:31:08.674Z,6.93
2023-04-15T22:33:35.424Z,7.80
2023-04-15T22:36:03.302Z,7.82
2023-04-15T22:38:29.630Z,7.65
2023-04-15T22:40:55.994Z,8.05
2023-04-15T22:43:22.351Z,8.32
2023-04-15T22:45:49.519Z,8.40
2023-04-15T22:48:16.106Z,8.13
2023-04-15T22:50:42.974Z,7.85
2023-04-15T22:53:09.278Z,8.05
2023-04-15T22:55:35.869Z,9.23
2023-04-15T22:58:02.174Z,9.15
2023-04-15T23:00:28.461Z,8.02
2023-04-15T23:02:54.853Z,8.88
2023-04-15T23:05:21.511Z,7.93
2023-04-15T23:07:47.873Z,8.75
2023-04-15T23:10:14.153Z,8.70
2023-04-15T23:12:40.500Z,8.70
2023-04-15T23:15:07.136Z,9.48
2023-04-15T23:17:34.713Z,9.23
2023-04-15T23:20:01.040Z,8.98
2023-04-15T23:22:27.302Z,9.00
2023-04-15T23:24:53.536Z,9.60
2023-04-15T23:27:19.872Z,9.20
2023-04-15T23:29:46.534Z,9.50
2023-04-15T23:32:12.813Z,9.75
2023-04-15T23:34:39.129Z,8.93
2023-04-15T23:37:05.382Z,9.32
2023-04-15T23:39:31.726Z,10.50
2023-04-15T23:41:58.086Z,9.57
2023-04-15T23:44:24.347Z,10.25
2023-04-15T23:46:51.311Z,10.25
2023-04-15T23:49:20.119Z,10.90
2023-04-15T23:51:46.719Z,9.80
2023-04-15T23:54:13.019Z,14.18
2023-04-15T23:56:39.379Z,10.73
2023-04-15T23:59:05.706Z,10.73
